createdAt,value
2018-11-06T00:01:51.928Z,99.90
2018-11-06T00:04:24.627Z,99.90
2018-11-06T00:06:53.074Z,99.70
2018-11-06T00:09:21.669Z,99.70
2018-11-06T00:11:50.142Z,99.60
2018-11-06T00:14:18.549Z,99.90
2018-11-06T00:16:46.978Z,99.50
2018-11-06T00:19:15.476Z,99.60
2018-11-06T00:21:44.050Z,99.80
2018-11-06T00:24:12.458Z,99.90
2018-11-06T00:26:40.934Z,99.90
2018-11-06T00:29:09.996Z,99.90
2018-11-06T00:31:39.076Z,99.90
2018-11-06T00:34:07.546Z,99.90
2018-11-06T00:36:35.995Z,99.90
2018-11-06T00:39:05.556Z,99.90
2018-11-06T00:41:34.082Z,99.90
2018-11-06T00:44:02.792Z,99.80
2018-11-06T00:46:31.220Z,99.70
2018-11-06T00:48:59.946Z,99.90
2018-11-06T00:51:28.480Z,99.90
2018-11-06T00:53:56.966Z,99.80
2018-11-06T00:56:25.476Z,99.90
2018-11-06T00:58:54.276Z,99.90
2018-11-06T01:01:22.874Z,99.90
2018-11-06T01:03:56.726Z,99.90
2018-11-06T01:06:25.166Z,99.90
2018-11-06T01:08:53.608Z,99.90
2018-11-06T01:11:22.105Z,99.90
2018-11-06T01:13:50.690Z,99.90
2018-11-06T01:16:19.140Z,99.80
2018-11-06T01:18:47.648Z,99.90
2018-11-06T01:21:16.086Z,99.90
2018-11-06T01:23:44.607Z,99.90
2018-11-06T01:26:13.088Z,99.90
2018-11-06T01:28:41.550Z,99.90
2018-11-06T01:31:09.984Z,99.70
2018-11-06T01:33:38.402Z,99.60
2018-11-06T01:36:06.951Z,99.70
2018-11-06T01:38:35.471Z,99.90
2018-11-06T01:41:04.015Z,99.90
2018-11-06T01:43:32.459Z,99.90
2018-11-06T01:46:00.942Z,99.90
2018-11-06T01:48:29.433Z,99.90
2018-11-06T01:50:58.018Z,99.90
2018-11-06T01:53:26.651Z,99.90
2018-11-06T01:55:55.177Z,99.90
2018-11-06T01:58:23.802Z,99.90
2018-11-06T02:00:53.097Z,99.90
2018-11-06T02:03:21.539Z,99.90
2018-11-06T02:05:49.964Z,99.80
2018-11-06T02:08:18.388Z,99.80
2018-11-06T02:10:46.805Z,99.70
2018-11-06T02:13:15.405Z,99.90
2018-11-06T02:15:43.880Z,99.90
2018-11-06T02:18:12.347Z,99.90
2018-11-06T02:20:48.093Z,99.70
2018-11-06T02:23:16.689Z,99.90
2018-11-06T02:25:45.201Z,99.80
2018-11-06T02:28:14.565Z,99.80
2018-11-06T02:30:43.023Z,99.90
2018-11-06T02:33:11.447Z,99.70
2018-11-06T02:35:40.033Z,99.80
2018-11-06T02:38:08.461Z,99.80
2018-11-06T02:40:38.559Z,99.80
2018-11-06T02:43:06.979Z,99.90
2018-11-06T02:45:35.430Z,99.80
2018-11-06T02:48:03.954Z,99.70
2018-11-06T02:50:32.407Z,99.80
2018-11-06T02:53:00.817Z,99.90
2018-11-06T02:55:29.365Z,99.90
2018-11-06T02:57:57.800Z,99.90
2018-11-06T03:00:26.229Z,99.90
2018-11-06T03:02:54.639Z,99.80
2018-11-06T03:05:23.091Z,99.70
2018-11-06T03:07:51.562Z,99.70
2018-11-06T03:10:20.045Z,99.90
2018-11-06T03:12:57.987Z,99.90
2018-11-06T03:15:26.400Z,99.90
2018-11-06T03:17:54.896Z,99.90
2018-11-06T03:20:23.321Z,99.70
2018-11-06T03:22:51.887Z,99.60
2018-11-06T03:25:20.375Z,99.60
2018-11-06T03:27:48.938Z,99.70
2018-11-06T03:30:17.534Z,99.90
2018-11-06T03:32:46.001Z,99.90
2018-11-06T03:35:15.151Z,99.90
2018-11-06T03:37:43.613Z,99.90
2018-11-06T03:40:14.369Z,99.90
2018-11-06T03:42:43.449Z,99.90
2018-11-06T03:45:12.787Z,99.90
2018-11-06T03:47:41.224Z,99.90
2018-11-06T03:50:11.285Z,99.90
2018-11-06T03:52:39.860Z,99.90
2018-11-06T03:55:08.663Z,99.80
2018-11-06T03:57:37.234Z,99.90
2018-11-06T04:00:08.053Z,99.90
2018-11-06T04:02:36.540Z,99.90
2018-11-06T04:05:05.990Z,99.90
2018-11-06T04:07:34.521Z,99.90
2018-11-06T04:10:03.432Z,99.90
2018-11-06T04:12:31.848Z,99.90
2018-11-06T04:15:00.290Z,99.90
2018-11-06T04:17:28.899Z,99.90
2018-11-06T04:19:57.472Z,99.90
2018-11-06T04:22:28.070Z,99.90
2018-11-06T04:24:56.498Z,99.90
2018-11-06T04:27:25.030Z,99.90
2018-11-06T04:29:53.446Z,99.90
2018-11-06T04:32:21.882Z,99.90
2018-11-06T04:34:53.443Z,99.90
2018-11-06T04:37:21.888Z,99.90
2018-11-06T04:39:50.314Z,99.90
2018-11-06T04:42:19.039Z,99.90
2018-11-06T04:44:47.581Z,99.90
2018-11-06T04:47:16.023Z,99.90
2018-11-06T04:49:44.473Z,99.90
2018-11-06T04:52:12.985Z,99.90
2018-11-06T04:54:41.435Z,99.90
2018-11-06T04:57:09.863Z,99.90
2018-11-06T04:59:38.375Z,99.90
2018-11-06T05:02:06.889Z,99.90
2018-11-06T05:04:35.438Z,99.90
2018-11-06T05:07:04.001Z,99.90
2018-11-06T05:09:32.357Z,99.90
2018-11-06T05:12:00.809Z,99.90
2018-11-06T05:14:29.247Z,99.90
2018-11-06T05:16:57.707Z,99.90
2018-11-06T05:19:26.219Z,99.90
2018-11-06T05:21:55.451Z,99.90
2018-11-06T05:24:24.003Z,99.90
2018-11-06T05:26:55.521Z,99.90
2018-11-06T05:29:24.037Z,99.90
2018-11-06T05:31:52.495Z,99.90
2018-11-06T05:34:20.940Z,99.90
2018-11-06T05:36:49.427Z,99.90
2018-11-06T05:39:17.898Z,99.90
2018-11-06T05:41:46.445Z,99.90
2018-11-06T05:44:14.917Z,99.90
2018-11-06T05:46:43.435Z,99.90
2018-11-06T05:49:11.966Z,99.90
2018-11-06T05:51:41.061Z,99.90
2018-11-06T05:54:09.567Z,99.90
2018-11-06T05:56:38.078Z,99.90
2018-11-06T05:59:06.543Z,99.90
2018-11-06T06:01:34.973Z,99.90
2018-11-06T06:04:14.273Z,99.90
2018-11-06T06:06:42.703Z,99.90
2018-11-06T06:09:11.177Z,99.90
2018-11-06T06:11:39.597Z,99.90
2018-11-06T06:14:08.045Z,99.90
2018-11-06T06:16:36.526Z,99.90
2018-11-06T06:27:43.253Z,99.90
2018-11-06T06:30:14.481Z,99.90
2018-11-06T06:32:43.021Z,99.90
2018-11-06T06:35:11.610Z,99.90
2018-11-06T06:37:40.143Z,99.90
2018-11-06T06:40:11.133Z,99.90
2018-11-06T06:42:39.553Z,99.90
2018-11-06T06:45:10.164Z,99.90
2018-11-06T06:47:38.641Z,99.90
2018-11-06T06:50:09.169Z,99.90
2018-11-06T06:52:38.373Z,99.60
2018-11-06T06:55:08.205Z,99.80
2018-11-06T06:57:37.624Z,99.70
2018-11-06T07:00:08.525Z,99.60
2018-11-06T07:02:37.157Z,99.30
2018-11-06T07:05:07.234Z,99.20
2018-11-06T07:07:36.056Z,99.40
2018-11-06T07:10:05.101Z,99.40
2018-11-06T07:12:33.829Z,99.90
2018-11-06T07:15:02.338Z,99.50
2018-11-06T07:17:30.866Z,99.90
2018-11-06T07:19:59.335Z,99.90
2018-11-06T07:22:27.767Z,99.90
2018-11-06T07:24:56.312Z,99.90
2018-11-06T07:27:24.740Z,99.90
2018-11-06T07:29:53.213Z,99.90
2018-11-06T07:32:21.735Z,99.90
2018-11-06T07:34:50.325Z,99.00
2018-11-06T07:37:18.690Z,99.10
2018-11-06T07:39:47.135Z,99.20
2018-11-06T07:42:15.685Z,99.90
2018-11-06T07:44:44.216Z,95.50
2018-11-06T07:47:12.731Z,91.60
2018-11-06T07:49:41.347Z,86.80
2018-11-06T07:52:09.856Z,70.10
2018-11-06T07:54:38.394Z,67.00
2018-11-06T07:57:07.011Z,61.60
2018-11-06T07:59:35.472Z,57.10
2018-11-06T08:02:03.898Z,53.40
2018-11-06T08:04:32.326Z,52.20
2018-11-06T08:07:00.796Z,51.10
2018-11-06T08:09:29.295Z,47.40
2018-11-06T08:11:57.854Z,45.70
2018-11-06T08:14:27.488Z,44.40
2018-11-06T08:16:56.016Z,44.00
2018-11-06T08:19:24.494Z,43.20
2018-11-06T08:21:52.934Z,44.60
2018-11-06T08:24:21.342Z,41.90
2018-11-06T08:26:49.890Z,42.10
2018-11-06T08:29:18.326Z,43.20
2018-11-06T08:31:47.104Z,42.70
2018-11-06T08:34:15.213Z,41.70
2018-11-06T08:36:43.759Z,40.30
2018-11-06T08:39:12.182Z,41.30
2018-11-06T08:41:41.192Z,40.80
2018-11-06T08:44:09.659Z,40.20
2018-11-06T08:46:41.123Z,39.80
2018-11-06T08:49:09.541Z,39.40
2018-11-06T08:51:38.084Z,38.20
2018-11-06T08:54:06.582Z,38.90
2018-11-06T08:56:35.355Z,37.70
2018-11-06T08:59:03.825Z,37.50
2018-11-06T09:01:32.269Z,36.70
2018-11-06T09:04:00.699Z,36.40
2018-11-06T09:06:29.130Z,36.90
2018-11-06T09:08:57.709Z,36.40
2018-11-06T09:11:26.134Z,34.20
2018-11-06T09:13:54.561Z,34.80
2018-11-06T09:16:22.982Z,35.00
2018-11-06T09:18:51.484Z,33.30
2018-11-06T09:21:19.906Z,33.40
2018-11-06T09:23:48.354Z,32.90
2018-11-06T09:26:16.790Z,32.10
2018-11-06T09:28:45.221Z,31.80
2018-11-06T09:31:13.639Z,32.20
2018-11-06T09:33:42.172Z,32.00
2018-11-06T09:36:10.647Z,31.50
2018-11-06T09:38:39.107Z,31.70
2018-11-06T09:41:07.542Z,30.50
2018-11-06T09:43:36.198Z,31.20
2018-11-06T09:46:04.686Z,31.50
2018-11-06T09:48:33.122Z,31.00
2018-11-06T09:51:02.105Z,30.30
2018-11-06T09:53:30.543Z,30.60
2018-11-06T09:55:58.973Z,29.70
2018-11-06T09:58:27.500Z,30.00
2018-11-06T10:00:56.139Z,30.00
2018-11-06T10:03:24.737Z,31.90
2018-11-06T10:05:53.175Z,32.70
2018-11-06T10:08:21.620Z,32.10
2018-11-06T10:10:50.069Z,32.70
2018-11-06T10:13:18.531Z,30.60
2018-11-06T10:15:47.012Z,31.70
2018-11-06T10:18:15.481Z,32.80
2018-11-06T10:20:43.967Z,31.70
2018-11-06T10:23:12.431Z,31.10
2018-11-06T10:25:40.905Z,31.70
2018-11-06T10:28:09.341Z,31.00
2018-11-06T10:30:37.877Z,30.10
2018-11-06T10:33:06.353Z,30.90
2018-11-06T10:35:34.775Z,30.00
2018-11-06T10:38:03.226Z,29.50
2018-11-06T10:40:31.676Z,29.70
2018-11-06T10:43:00.120Z,29.80
2018-11-06T10:45:28.551Z,30.60
2018-11-06T10:47:57.009Z,30.30
2018-11-06T10:50:25.437Z,30.40
2018-11-06T10:52:53.903Z,30.90
2018-11-06T10:55:22.357Z,30.70
2018-11-06T10:57:50.819Z,29.90
2018-11-06T11:01:24.062Z,30.20
2018-11-06T11:03:57.964Z,30.30
2018-11-06T11:06:26.491Z,29.00
2018-11-06T11:08:54.965Z,29.80
2018-11-06T11:11:23.429Z,30.00
2018-11-06T11:13:51.895Z,31.60
2018-11-06T11:16:20.318Z,32.90
2018-11-06T11:18:48.733Z,33.60
2018-11-06T11:21:17.158Z,33.50
2018-11-06T11:23:45.533Z,34.50
2018-11-06T11:26:13.972Z,36.00
2018-11-06T11:28:42.411Z,37.30
2018-11-06T11:31:10.874Z,37.50
2018-11-06T11:33:45.973Z,38.50
2018-11-06T11:36:14.421Z,40.40
2018-11-06T11:38:42.833Z,41.10
2018-11-06T11:41:11.234Z,41.20
2018-11-06T11:43:39.902Z,40.80
2018-11-06T11:46:08.370Z,40.20
2018-11-06T11:48:36.817Z,40.70
2018-11-06T11:51:05.832Z,40.70
2018-11-06T11:53:34.299Z,39.30
2018-11-06T11:56:02.784Z,38.00
2018-11-06T11:58:31.624Z,38.90
2018-11-06T12:01:00.058Z,40.10
2018-11-06T12:03:28.513Z,40.70
2018-11-06T12:05:56.926Z,41.10
2018-11-06T12:08:25.354Z,41.20
2018-11-06T12:10:53.806Z,41.30
2018-11-06T12:13:22.262Z,40.60
2018-11-06T12:15:50.676Z,39.70
2018-11-06T12:18:19.203Z,39.80
2018-11-06T12:20:47.696Z,40.30
2018-11-06T12:23:16.152Z,40.70
2018-11-06T12:25:44.888Z,40.60
2018-11-06T12:28:13.090Z,39.80
2018-11-06T12:30:41.589Z,40.50
2018-11-06T12:33:10.028Z,39.30
2018-11-06T12:35:38.513Z,38.70
2018-11-06T12:38:08.240Z,38.50
2018-11-06T12:40:36.692Z,38.30
2018-11-06T12:43:05.453Z,39.10
2018-11-06T12:45:33.900Z,40.40
2018-11-06T12:48:02.341Z,42.00
2018-11-06T12:50:30.821Z,42.40
2018-11-06T12:52:59.312Z,43.40
2018-11-06T12:55:27.800Z,45.40
2018-11-06T12:57:56.220Z,46.60
2018-11-06T13:00:24.678Z,47.60
2018-11-06T13:02:57.676Z,49.60
2018-11-06T13:05:26.102Z,51.00
2018-11-06T13:07:54.570Z,52.20
2018-11-06T13:10:23.212Z,52.40
2018-11-06T13:12:51.664Z,53.60
2018-11-06T13:15:20.073Z,54.60
2018-11-06T13:17:48.547Z,55.30
2018-11-06T13:20:17.549Z,54.70
2018-11-06T13:22:46.131Z,58.30
2018-11-06T13:25:14.590Z,55.20
2018-11-06T13:27:43.318Z,54.70
2018-11-06T13:30:16.420Z,55.60
2018-11-06T13:32:48.128Z,55.80
2018-11-06T13:35:16.611Z,56.30
2018-11-06T13:37:45.081Z,56.50
2018-11-06T13:40:15.358Z,56.40
2018-11-06T13:42:44.024Z,56.60
2018-11-06T13:45:17.216Z,56.60
2018-11-06T13:47:45.620Z,57.00
2018-11-06T13:50:14.056Z,56.80
2018-11-06T13:52:42.493Z,57.40
2018-11-06T13:55:13.004Z,57.70
2018-11-06T13:57:41.821Z,57.20
2018-11-06T14:00:13.693Z,57.30
2018-11-06T14:02:42.141Z,57.80
2018-11-06T14:05:10.717Z,58.70
2018-11-06T14:07:39.233Z,59.00
2018-11-06T14:10:08.091Z,59.60
2018-11-06T14:12:36.556Z,60.20
2018-11-06T14:15:05.029Z,60.90
2018-11-06T14:17:33.482Z,61.60
2018-11-06T14:20:01.999Z,61.80
2018-11-06T14:22:30.861Z,62.10
2018-11-06T14:24:59.316Z,62.60
2018-11-06T14:27:27.794Z,63.10
2018-11-06T14:29:56.264Z,63.70
2018-11-06T14:32:24.701Z,64.30
2018-11-06T14:34:53.099Z,64.70
2018-11-06T14:37:21.563Z,65.70
2018-11-06T14:39:49.997Z,66.00
2018-11-06T14:42:18.628Z,66.50
2018-11-06T14:44:47.020Z,67.00
2018-11-06T14:47:15.457Z,67.60
2018-11-06T14:49:44.105Z,68.00
2018-11-06T14:52:12.566Z,68.40
2018-11-06T14:54:43.834Z,68.90
2018-11-06T14:57:12.388Z,68.90
2018-11-06T14:59:40.976Z,69.30
2018-11-06T15:02:09.460Z,69.80
2018-11-06T15:04:37.964Z,70.30
2018-11-06T15:07:11.040Z,70.30
2018-11-06T15:09:39.533Z,71.10
2018-11-06T15:12:08.136Z,71.40
2018-11-06T15:14:36.588Z,71.80
2018-11-06T15:17:05.373Z,72.40
2018-11-06T15:19:40.161Z,72.70
2018-11-06T15:22:08.648Z,74.20
2018-11-06T15:24:37.312Z,74.00
2018-11-06T15:27:05.769Z,74.40
2018-11-06T15:29:34.222Z,75.10
2018-11-06T15:32:02.726Z,75.70
2018-11-06T15:34:31.299Z,76.10
2018-11-06T15:36:59.866Z,76.60
2018-11-06T15:39:29.019Z,77.20
2018-11-06T15:41:57.717Z,78.10
2018-11-06T15:44:28.616Z,78.20
2018-11-06T15:46:57.028Z,79.20
2018-11-06T15:49:25.490Z,80.20
2018-11-06T15:51:53.910Z,81.90
2018-11-06T15:54:22.384Z,80.80
2018-11-06T15:56:51.960Z,82.30
2018-11-06T15:59:20.434Z,82.70
2018-11-06T16:01:48.961Z,83.50
2018-11-06T16:04:17.368Z,83.80
2018-11-06T16:06:45.882Z,84.40
2018-11-06T16:09:14.301Z,84.80
2018-11-06T16:11:42.775Z,84.90
2018-11-06T16:14:11.295Z,85.10
2018-11-06T16:16:39.722Z,84.20
2018-11-06T16:19:11.198Z,85.80
2018-11-06T16:21:39.646Z,87.10
2018-11-06T16:24:08.259Z,87.60
2018-11-06T16:26:36.690Z,88.30
2018-11-06T16:29:05.583Z,89.00
2018-11-06T16:31:34.015Z,89.20
2018-11-06T16:34:02.494Z,90.10
2018-11-06T16:36:30.972Z,90.30
2018-11-06T16:38:59.502Z,90.80
2018-11-06T16:41:28.018Z,91.00
2018-11-06T16:43:56.479Z,91.00
2018-11-06T16:46:24.904Z,91.30
2018-11-06T16:48:53.349Z,91.80
2018-11-06T16:51:21.867Z,92.00
2018-11-06T16:53:50.394Z,92.50
2018-11-06T16:56:18.828Z,92.60
2018-11-06T16:58:47.263Z,92.80
2018-11-06T17:01:16.014Z,93.10
2018-11-06T17:03:44.488Z,93.10
2018-11-06T17:06:18.229Z,93.00
2018-11-06T17:08:46.696Z,93.50
2018-11-06T17:11:15.184Z,93.70
2018-11-06T17:13:43.631Z,93.90
2018-11-06T17:16:12.145Z,94.10
2018-11-06T17:18:41.133Z,94.40
2018-11-06T17:21:09.766Z,94.00
2018-11-06T17:23:38.357Z,94.20
2018-11-06T17:26:06.865Z,94.20
2018-11-06T17:28:35.407Z,94.10
2018-11-06T17:31:03.978Z,94.70
2018-11-06T17:33:32.492Z,94.80
2018-11-06T17:36:01.111Z,94.90
2018-11-06T17:38:30.211Z,95.10
2018-11-06T17:40:58.735Z,95.20
2018-11-06T17:43:27.475Z,94.90
2018-11-06T17:45:56.154Z,94.90
2018-11-06T17:48:24.715Z,95.00
2018-11-06T17:50:53.737Z,94.90
2018-11-06T17:53:22.542Z,94.90
2018-11-06T17:55:51.376Z,95.20
2018-11-06T17:58:20.016Z,95.30
2018-11-06T18:00:48.628Z,95.40
2018-11-06T18:03:17.712Z,95.50
2018-11-06T18:05:46.379Z,95.90
2018-11-06T18:08:15.252Z,96.40
2018-11-06T18:13:15.822Z,96.10
2018-11-06T18:15:44.975Z,96.10
2018-11-06T18:18:13.985Z,96.40
2018-11-06T18:20:43.398Z,96.40
2018-11-06T18:23:13.696Z,96.10
2018-11-06T18:25:43.085Z,96.10
2018-11-06T18:28:12.175Z,96.10
2018-11-06T18:33:08.564Z,96.00
2018-11-06T18:35:37.433Z,96.60
2018-11-06T18:38:06.411Z,96.90
2018-11-06T18:40:35.978Z,96.60
2018-11-06T18:43:04.921Z,96.50
2018-11-06T18:45:34.464Z,96.70
2018-11-06T18:48:03.766Z,96.80
2018-11-06T18:50:33.323Z,96.90
2018-11-06T18:53:02.217Z,96.90
2018-11-06T18:55:31.255Z,96.90
2018-11-06T18:58:01.220Z,96.90
2018-11-06T19:00:31.489Z,96.70
2018-11-06T19:03:01.230Z,96.80
2018-11-06T19:07:58.087Z,97.10
2018-11-06T19:10:27.418Z,97.30
2018-11-06T19:12:56.680Z,97.20
2018-11-06T19:15:26.271Z,97.10
2018-11-06T19:17:56.737Z,96.90
2018-11-06T19:20:29.331Z,96.70
2018-11-06T19:22:59.833Z,96.60
2018-11-06T19:25:29.864Z,96.70
2018-11-06T19:27:59.320Z,96.70
2018-11-06T19:30:29.708Z,96.80
2018-11-06T19:32:59.106Z,96.70
2018-11-06T19:35:28.639Z,96.80
2018-11-06T19:37:59.390Z,97.00
2018-11-06T19:40:28.864Z,96.90
2018-11-06T19:42:59.187Z,97.00
2018-11-06T19:45:28.690Z,97.00
2018-11-06T19:47:58.144Z,97.00
2018-11-06T19:50:29.752Z,96.90
2018-11-06T19:53:00.001Z,97.00
2018-11-06T19:55:30.883Z,97.00
2018-11-06T19:58:01.398Z,96.90
2018-11-06T20:00:31.148Z,96.90
2018-11-06T20:03:01.717Z,96.70
2018-11-06T20:05:32.617Z,96.70
2018-11-06T20:08:02.795Z,96.50
2018-11-06T20:10:34.504Z,96.70
2018-11-06T20:13:04.497Z,96.60
2018-11-06T20:15:34.252Z,97.10
2018-11-06T20:18:05.340Z,97.30
2018-11-06T20:20:36.737Z,96.90
2018-11-06T20:23:06.931Z,97.20
2018-11-06T20:25:38.179Z,97.10
2018-11-06T20:28:09.266Z,97.80
2018-11-06T20:30:42.000Z,98.20
2018-11-06T20:33:11.567Z,98.80
2018-11-06T20:35:42.243Z,99.50
2018-11-06T20:38:15.045Z,99.30
2018-11-06T20:43:20.317Z,98.70
2018-11-06T20:45:50.233Z,98.00
2018-11-06T20:48:21.907Z,98.50
2018-11-06T20:50:54.288Z,98.10
2018-11-06T20:53:27.013Z,98.20
2018-11-06T20:55:57.216Z,98.20
2018-11-06T20:58:28.143Z,98.40
2018-11-06T21:00:58.338Z,98.40
2018-11-06T21:03:27.980Z,98.30
2018-11-06T21:05:58.212Z,98.40
2018-11-06T21:08:28.033Z,98.40
2018-11-06T21:10:58.087Z,98.70
2018-11-06T21:16:02.254Z,98.50
2018-11-06T21:18:32.150Z,98.40
2018-11-06T21:21:02.390Z,98.40
2018-11-06T21:23:32.513Z,98.40
2018-11-06T21:26:02.508Z,98.20
2018-11-06T21:28:32.168Z,98.30
2018-11-06T21:31:02.113Z,98.60
2018-11-06T21:33:32.042Z,98.20
2018-11-06T21:36:01.402Z,98.60
2018-11-06T21:38:30.811Z,98.50
2018-11-06T21:41:00.711Z,98.40
2018-11-06T21:43:30.601Z,98.30
2018-11-06T21:46:00.139Z,98.40
2018-11-06T21:48:30.669Z,98.80
2018-11-06T21:50:59.685Z,99.50
2018-11-06T21:53:29.249Z,99.60
2018-11-06T21:56:00.281Z,99.50
2018-11-06T21:58:29.898Z,99.60
2018-11-06T22:00:58.942Z,99.30
2018-11-06T22:03:28.107Z,99.40
2018-11-06T22:05:57.219Z,98.90
2018-11-06T22:08:26.477Z,99.00
2018-11-06T22:10:55.624Z,98.70
2018-11-06T22:13:24.406Z,98.30
2018-11-06T22:15:53.451Z,98.20
2018-11-06T22:18:22.057Z,98.40
2018-11-06T22:20:50.530Z,98.30
2018-11-06T22:23:19.013Z,98.30
2018-11-06T22:25:47.568Z,98.80
2018-11-06T22:28:16.124Z,99.80
2018-11-06T22:30:45.224Z,99.90
2018-11-06T22:33:13.727Z,99.90
2018-11-06T22:35:42.286Z,99.90
2018-11-06T22:38:10.757Z,99.90
2018-11-06T22:40:40.141Z,99.80
2018-11-06T22:43:08.554Z,99.90
2018-11-06T22:45:37.048Z,99.80
2018-11-06T22:48:05.624Z,99.40
2018-11-06T22:50:36.852Z,99.50
2018-11-06T22:53:05.676Z,99.50
2018-11-06T22:55:34.080Z,99.60
2018-11-06T22:58:02.600Z,99.50
2018-11-06T23:00:37.561Z,99.60
2018-11-06T23:03:11.769Z,99.90
2018-11-06T23:05:40.407Z,99.90
2018-11-06T23:08:14.404Z,99.90
2018-11-06T23:10:42.925Z,99.90
2018-11-06T23:13:11.530Z,99.90
2018-11-06T23:15:39.976Z,99.90
2018-11-06T23:18:12.208Z,99.90
2018-11-06T23:20:40.698Z,99.90
2018-11-06T23:23:15.124Z,99.90
2018-11-06T23:25:43.643Z,99.90
2018-11-06T23:28:12.247Z,99.90
2018-11-06T23:30:41.292Z,99.90
2018-11-06T23:33:09.699Z,99.90
2018-11-06T23:35:38.264Z,99.80
2018-11-06T23:38:06.726Z,99.90
2018-11-06T23:40:35.173Z,99.90
2018-11-06T23:43:03.658Z,99.90
2018-11-06T23:45:32.070Z,99.90
2018-11-06T23:48:00.494Z,99.90
2018-11-06T23:50:28.934Z,99.90
2018-11-06T23:52:57.348Z,99.90
2018-11-06T23:55:25.835Z,99.90
2018-11-06T23:57:54.357Z,99.90
